Time;durP1;ratioP1;P1;durP2;ratioP2;P2;SDS_P1;SDS_P2;PMS_P1;PMS_P2;Temp;Humidity;BMP_temperature;BMP_pressure;BME280_temperature;BME280_humidity;BME280_pressure;Samples;Min_cycle;Max_cycle;Signal;HPM_P1;HPM_P2
2023/04/20 00:02:20;;;;;;;3.97;3.03;;;;;;;;;;5070760;28;20302;-84
2023/04/20 00:04:49;;;;;;;2.10;1.93;;;;;;;;;;5070736;28;20306;-83
2023/04/20 00:07:18;;;;;;;2.40;1.73;;;;;;;;;;5070478;28;20340;-84
2023/04/20 00:09:46;;;;;;;2.37;2.13;;;;;;;;;;5070314;28;20251;-83
2023/04/20 00:12:15;;;;;;;3.43;2.37;;;;;;;;;;5070228;28;20289;-84
2023/04/20 00:14:43;;;;;;;7.17;1.87;;;;;;;;;;5070535;28;20284;-84
2023/04/20 00:17:12;;;;;;;2.33;1.87;;;;;;;;;;5070089;28;20262;-84
2023/04/20 00:19:41;;;;;;;1.53;1.43;;;;;;;;;;5070497;28;20247;-83
2023/04/20 00:22:10;;;;;;;1.90;1.80;;;;;;;;;;5070167;28;20207;-83
2023/04/20 00:24:38;;;;;;;2.27;2.10;;;;;;;;;;5069744;28;20206;-84
2023/04/20 00:27:07;;;;;;;5.30;2.60;;;;;;;;;;5069542;28;20278;-83
2023/04/20 00:29:35;;;;;;;1.77;1.67;;;;;;;;;;5070111;28;20201;-84
2023/04/20 00:32:04;;;;;;;3.17;2.87;;;;;;;;;;5069704;28;20212;-83
2023/04/20 00:34:32;;;;;;;6.60;2.63;;;;;;;;;;5070070;28;20297;-83
2023/04/20 00:37:02;;;;;;;3.30;3.10;;;;;;;;;;5070076;28;20255;-83
2023/04/20 00:39:33;;;;;;;2.30;2.20;;;;;;;;;;5069496;28;20304;-83
2023/04/20 00:42:06;;;;;;;2.87;2.37;;;;;;;;;;5070400;28;20211;-83
2023/04/20 00:44:34;;;;;;;2.63;2.37;;;;;;;;;;5069703;28;20194;-83
2023/04/20 00:47:03;;;;;;;2.77;2.57;;;;;;;;;;5069009;28;20198;-83
2023/04/20 00:49:32;;;;;;;2.47;2.33;;;;;;;;;;5069636;28;20200;-83
2023/04/20 00:52:01;;;;;;;2.57;2.40;;;;;;;;;;5069423;28;20236;-83
2023/04/20 00:54:31;;;;;;;3.23;2.93;;;;;;;;;;5069833;28;20297;-84
2023/04/20 00:57:00;;;;;;;2.23;2.10;;;;;;;;;;5069139;28;20291;-83
2023/04/20 00:59:28;;;;;;;2.03;1.90;;;;;;;;;;5069506;28;20241;-83
2023/04/20 01:01:57;;;;;;;2.83;2.03;;;;;;;;;;5069504;28;20228;-83
2023/04/20 01:04:27;;;;;;;2.40;2.20;;;;;;;;;;5068988;28;20207;-83
2023/04/20 01:06:55;;;;;;;2.03;1.80;;;;;;;;;;5069668;28;20203;-84
2023/04/20 01:09:24;;;;;;;3.47;2.20;;;;;;;;;;5069495;28;20213;-84
2023/04/20 01:11:54;;;;;;;1.37;1.37;;;;;;;;;;5068847;28;20243;-83
2023/04/20 01:14:22;;;;;;;1.43;1.43;;;;;;;;;;5069496;28;20198;-83
2023/04/20 01:16:51;;;;;;;3.80;1.67;;;;;;;;;;5068874;28;20311;-83
2023/04/20 01:19:20;;;;;;;1.13;1.03;;;;;;;;;;5068843;28;20206;-83
2023/04/20 01:21:48;;;;;;;1.10;1.10;;;;;;;;;;5069108;28;20224;-83
2023/04/20 01:24:18;;;;;;;8.70;1.77;;;;;;;;;;5069250;28;20299;-83
2023/04/20 01:26:47;;;;;;;1.43;1.43;;;;;;;;;;5068729;28;20236;-83
2023/04/20 01:29:15;;;;;;;1.60;1.50;;;;;;;;;;5068931;28;20260;-83
2023/04/20 01:31:44;;;;;;;1.77;1.67;;;;;;;;;;5068836;28;20210;-84
2023/04/20 01:34:13;;;;;;;3.03;1.77;;;;;;;;;;5068537;28;20210;-83
2023/04/20 01:36:42;;;;;;;1.47;1.37;;;;;;;;;;5068842;28;20277;-83
2023/04/20 01:39:12;;;;;;;2.27;2.17;;;;;;;;;;5068071;28;20237;-83
2023/04/20 01:41:42;;;;;;;1.97;1.87;;;;;;;;;;5067944;28;20206;-83
2023/04/20 01:44:11;;;;;;;2.53;1.83;;;;;;;;;;5068670;28;20244;-83
2023/04/20 01:46:39;;;;;;;2.10;2.00;;;;;;;;;;5068380;28;20260;-85
2023/04/20 01:49:08;;;;;;;1.57;1.47;;;;;;;;;;5068240;28;20233;-85
2023/04/20 01:51:37;;;;;;;1.80;1.70;;;;;;;;;;5068095;28;20233;-85
2023/04/20 01:54:05;;;;;;;3.47;2.27;;;;;;;;;;5068664;28;20207;-85
2023/04/20 01:56:34;;;;;;;1.80;1.70;;;;;;;;;;5068264;28;20225;-85
2023/04/20 01:59:04;;;;;;;1.97;1.80;;;;;;;;;;5068268;28;20210;-85
2023/04/20 02:01:32;;;;;;;1.97;1.87;;;;;;;;;;5068283;28;20264;-85
2023/04/20 02:04:01;;;;;;;1.93;1.83;;;;;;;;;;5068789;28;20237;-85
2023/04/20 02:06:30;;;;;;;1.60;1.50;;;;;;;;;;5067951;28;20197;-85
2023/04/20 02:08:59;;;;;;;3.03;2.40;;;;;;;;;;5068328;28;20302;-85
2023/04/20 02:11:27;;;;;;;2.37;2.17;;;;;;;;;;5068777;28;20210;-85
2023/04/20 02:13:57;;;;;;;2.57;1.67;;;;;;;;;;5067418;28;20205;-85
2023/04/20 02:16:28;;;;;;;1.57;1.47;;;;;;;;;;5068537;28;20225;-85
2023/04/20 02:18:56;;;;;;;2.10;1.90;;;;;;;;;;5068751;28;20206;-85
2023/04/20 02:21:25;;;;;;;2.30;2.03;;;;;;;;;;5068246;28;20343;-85
2023/04/20 02:23:53;;;;;;;1.97;1.87;;;;;;;;;;5068145;28;20205;-85
2023/04/20 02:26:22;;;;;;;2.60;2.40;;;;;;;;;;5068297;28;20206;-85
2023/04/20 02:28:51;;;;;;;2.00;1.90;;;;;;;;;;5067969;28;20202;-85
2023/04/20 02:31:19;;;;;;;2.00;1.90;;;;;;;;;;5068181;28;20210;-85
2023/04/20 02:33:50;;;;;;;1.90;1.80;;;;;;;;;;5068440;28;20217;-85
2023/04/20 02:36:18;;;;;;;2.13;2.03;;;;;;;;;;5068263;28;20222;-85
2023/04/20 02:38:47;;;;;;;2.53;2.33;;;;;;;;;;5068535;28;20344;-86
2023/04/20 02:41:15;;;;;;;1.87;1.77;;;;;;;;;;5067861;28;20202;-85
2023/04/20 02:43:43;;;;;;;1.93;1.80;;;;;;;;;;5067767;28;20255;-85
2023/04/20 02:46:12;;;;;;;1.83;1.73;;;;;;;;;;5067845;28;20236;-85
2023/04/20 02:48:40;;;;;;;3.00;2.80;;;;;;;;;;5068304;28;20268;-85
2023/04/20 02:51:12;;;;;;;2.10;1.57;;;;;;;;;;5069600;28;20209;-85
2023/04/20 02:53:40;;;;;;;2.03;1.93;;;;;;;;;;5071516;28;20298;-85
2023/04/20 02:56:09;;;;;;;1.37;1.37;;;;;;;;;;5072078;28;20203;-85
2023/04/20 02:58:38;;;;;;;1.60;1.50;;;;;;;;;;5072149;28;20209;-85
2023/04/20 03:01:06;;;;;;;1.33;1.33;;;;;;;;;;5071565;28;20233;-85
2023/04/20 03:03:36;;;;;;;2.03;1.93;;;;;;;;;;5071610;28;20209;-84
2023/04/20 03:06:05;;;;;;;1.73;1.63;;;;;;;;;;5071886;28;20300;-84
2023/04/20 03:08:35;;;;;;;2.53;2.33;;;;;;;;;;5071696;28;20235;-85
2023/04/20 03:11:04;;;;;;;2.53;2.33;;;;;;;;;;5071808;28;20344;-85
2023/04/20 03:13:32;;;;;;;1.80;1.70;;;;;;;;;;5071711;28;20231;-85
2023/04/20 03:16:01;;;;;;;2.57;2.13;;;;;;;;;;5071039;28;20228;-85
2023/04/20 03:18:29;;;;;;;10.00;2.30;;;;;;;;;;5071014;28;20229;-85
2023/04/20 03:20:58;;;;;;;1.40;1.40;;;;;;;;;;5071467;28;20205;-85
2023/04/20 03:23:27;;;;;;;2.13;1.97;;;;;;;;;;5070865;28;20293;-85
2023/04/20 03:25:57;;;;;;;1.70;1.60;;;;;;;;;;5071963;28;20296;-85
2023/04/20 03:28:25;;;;;;;1.57;1.53;;;;;;;;;;5070990;28;20239;-85
2023/04/20 03:30:53;;;;;;;1.90;1.53;;;;;;;;;;5071227;28;20222;-85
2023/04/20 03:33:22;;;;;;;1.40;1.30;;;;;;;;;;5071503;28;20217;-85
2023/04/20 03:35:50;;;;;;;3.87;1.57;;;;;;;;;;5071483;28;20277;-85
2023/04/20 03:38:20;;;;;;;2.53;2.03;;;;;;;;;;5071425;28;20246;-85
2023/04/20 03:40:48;;;;;;;1.70;1.60;;;;;;;;;;5070606;28;20248;-85
2023/04/20 03:43:18;;;;;;;2.53;2.33;;;;;;;;;;5071042;28;20206;-85
2023/04/20 03:45:46;;;;;;;1.83;1.53;;;;;;;;;;5071136;28;20261;-85
2023/04/20 03:48:15;;;;;;;1.23;1.20;;;;;;;;;;5070714;28;20214;-85
2023/04/20 03:50:43;;;;;;;2.00;1.57;;;;;;;;;;5071262;28;20229;-85
2023/04/20 03:53:12;;;;;;;2.80;1.90;;;;;;;;;;5070440;28;20312;-85
2023/04/20 03:55:40;;;;;;;1.30;1.30;;;;;;;;;;5070472;28;20199;-85
2023/04/20 03:58:09;;;;;;;1.47;1.37;;;;;;;;;;5070877;28;20274;-85
2023/04/20 04:00:38;;;;;;;5.70;2.03;;;;;;;;;;5070646;28;20234;-85
2023/04/20 04:03:07;;;;;;;1.80;1.70;;;;;;;;;;5069409;28;20217;-85
2023/04/20 04:05:35;;;;;;;8.60;2.90;;;;;;;;;;5070518;28;20273;-85
2023/04/20 04:08:04;;;;;;;1.33;1.30;;;;;;;;;;5070738;28;20204;-85
2023/04/20 04:10:32;;;;;;;1.77;1.67;;;;;;;;;;5070236;28;20212;-85
2023/04/20 04:13:01;;;;;;;2.10;2.00;;;;;;;;;;5070545;28;20236;-85
2023/04/20 04:15:29;;;;;;;5.53;1.33;;;;;;;;;;5070249;28;20270;-84
2023/04/20 04:17:59;;;;;;;1.90;1.53;;;;;;;;;;5069728;28;20267;-83
2023/04/20 04:20:28;;;;;;;1.70;1.60;;;;;;;;;;5070217;28;20287;-83
2023/04/20 04:22:57;;;;;;;2.73;1.97;;;;;;;;;;5069710;28;20211;-83
2023/04/20 04:25:25;;;;;;;2.10;2.00;;;;;;;;;;5069729;28;20236;-83
2023/04/20 04:27:53;;;;;;;1.67;1.57;;;;;;;;;;5069887;28;20250;-84
2023/04/20 04:30:22;;;;;;;3.43;1.97;;;;;;;;;;5070013;28;20265;-83
2023/04/20 04:32:51;;;;;;;1.57;1.57;;;;;;;;;;5069631;28;20237;-83
2023/04/20 04:35:21;;;;;;;3.23;1.87;;;;;;;;;;5070076;28;20255;-85
2023/04/20 04:37:51;;;;;;;2.10;1.73;;;;;;;;;;5069890;28;20249;-85
2023/04/20 04:40:19;;;;;;;1.47;1.37;;;;;;;;;;5069650;28;20240;-85
2023/04/20 04:42:48;;;;;;;4.47;1.70;;;;;;;;;;5069470;28;20228;-83
2023/04/20 04:45:17;;;;;;;3.20;2.47;;;;;;;;;;5069985;28;20207;-83
2023/04/20 04:47:45;;;;;;;2.37;2.23;;;;;;;;;;5069897;28;20261;-83
2023/04/20 04:50:14;;;;;;;2.00;1.77;;;;;;;;;;5069464;28;20226;-84
2023/04/20 04:52:44;;;;;;;4.40;2.10;;;;;;;;;;5068998;28;20296;-86
2023/04/20 04:55:12;;;;;;;1.57;1.47;;;;;;;;;;5070117;28;20261;-85
2023/04/20 04:57:43;;;;;;;2.63;2.13;;;;;;;;;;5069734;28;20299;-85
2023/04/20 05:00:12;;;;;;;2.57;2.17;;;;;;;;;;5070085;28;20203;-85
2023/04/20 05:02:41;;;;;;;5.33;1.80;;;;;;;;;;5069852;28;20258;-85
2023/04/20 05:05:10;;;;;;;1.67;1.57;;;;;;;;;;5069301;28;20275;-85
2023/04/20 05:07:38;;;;;;;1.30;1.30;;;;;;;;;;5069319;28;20207;-86
2023/04/20 05:10:10;;;;;;;5.77;2.37;;;;;;;;;;5069569;28;20305;-86
2023/04/20 05:12:40;;;;;;;1.03;1.03;;;;;;;;;;5069035;28;20233;-85
2023/04/20 05:15:09;;;;;;;3.20;1.67;;;;;;;;;;5068599;28;20203;-85
2023/04/20 05:17:37;;;;;;;2.13;1.90;;;;;;;;;;5069179;28;20286;-85
2023/04/20 05:20:09;;;;;;;2.00;1.53;;;;;;;;;;5069155;28;20215;-86
2023/04/20 05:22:37;;;;;;;1.50;1.40;;;;;;;;;;5069034;28;20241;-85
2023/04/20 05:25:06;;;;;;;1.47;1.40;;;;;;;;;;5069635;28;20208;-85
2023/04/20 05:27:36;;;;;;;4.10;2.40;;;;;;;;;;5069120;28;20262;-86
2023/04/20 05:30:06;;;;;;;4.33;1.93;;;;;;;;;;5069191;28;20211;-85
2023/04/20 05:32:48;;;;;;;2.27;2.17;;;;;;;;;;5069540;28;20219;-84
2023/04/20 05:35:20;;;;;;;2.30;2.03;;;;;;;;;;5068397;28;20206;-84
2023/04/20 05:37:48;;;;;;;3.60;2.30;;;;;;;;;;5068894;28;20220;-85
2023/04/20 05:40:17;;;;;;;2.60;2.13;;;;;;;;;;5069059;28;20262;-85
2023/04/20 05:42:47;;;;;;;2.93;2.17;;;;;;;;;;5068631;28;20211;-85
2023/04/20 05:45:15;;;;;;;3.40;2.03;;;;;;;;;;5068442;28;20209;-84
2023/04/20 05:47:53;;;;;;;3.90;3.57;;;;;;;;;;5068886;28;20211;-85
2023/04/20 05:50:21;;;;;;;3.53;2.10;;;;;;;;;;5068735;28;20205;-83
2023/04/20 05:52:50;;;;;;;1.60;1.50;;;;;;;;;;5067726;28;20334;-83
2023/04/20 05:55:19;;;;;;;2.77;1.90;;;;;;;;;;5068732;28;20203;-79
2023/04/20 05:57:51;;;;;;;6.30;2.77;;;;;;;;;;5068602;28;20216;-83
2023/04/20 06:00:21;;;;;;;2.20;2.00;;;;;;;;;;5068138;28;20211;-83
2023/04/20 06:02:54;;;;;;;3.57;1.43;;;;;;;;;;5069154;28;20209;-85
2023/04/20 06:05:23;;;;;;;5.03;2.10;;;;;;;;;;5069745;28;20209;-84
2023/04/20 06:07:51;;;;;;;2.63;2.43;;;;;;;;;;5069625;28;20239;-83
2023/04/20 06:10:20;;;;;;;2.17;2.07;;;;;;;;;;5070062;28;20211;-84
2023/04/20 06:12:48;;;;;;;2.20;2.00;;;;;;;;;;5069658;28;20246;-83
2023/04/20 06:15:18;;;;;;;2.17;1.67;;;;;;;;;;5069696;28;20204;-83
2023/04/20 06:17:47;;;;;;;2.13;1.90;;;;;;;;;;5070043;28;20210;-84
2023/04/20 06:20:15;;;;;;;3.87;2.57;;;;;;;;;;5069491;28;20242;-83
2023/04/20 06:22:44;;;;;;;7.37;2.80;;;;;;;;;;5068727;28;20213;-84
2023/04/20 06:25:14;;;;;;;3.27;2.07;;;;;;;;;;5068410;28;20226;-84
2023/04/20 06:27:42;;;;;;;5.90;2.50;;;;;;;;;;5068504;28;20343;-84
2023/04/20 06:30:11;;;;;;;5.13;2.80;;;;;;;;;;5068423;28;20208;-84
2023/04/20 06:32:41;;;;;;;3.40;2.53;;;;;;;;;;5068435;28;20212;-84
2023/04/20 06:35:10;;;;;;;2.90;2.17;;;;;;;;;;5067964;28;20202;-83
2023/04/20 06:37:39;;;;;;;3.10;1.70;;;;;;;;;;5068212;28;20211;-83
2023/04/20 06:40:08;;;;;;;3.83;2.43;;;;;;;;;;5068305;28;20243;-83
2023/04/20 06:42:37;;;;;;;2.43;2.23;;;;;;;;;;5068161;28;20211;-83
2023/04/20 06:45:06;;;;;;;3.23;2.23;;;;;;;;;;5067817;28;20196;-83
2023/04/20 06:47:34;;;;;;;3.10;2.33;;;;;;;;;;5067757;28;20221;-84
2023/04/20 06:50:08;;;;;;;2.33;2.13;;;;;;;;;;5068019;28;20290;-83
2023/04/20 06:52:39;;;;;;;2.67;2.20;;;;;;;;;;5067739;28;20260;-83
2023/04/20 06:55:08;;;;;;;3.07;2.30;;;;;;;;;;5067870;28;20200;-83
2023/04/20 06:57:38;;;;;;;4.00;2.13;;;;;;;;;;5068027;28;20268;-83
2023/04/20 07:00:08;;;;;;;2.83;1.73;;;;;;;;;;5068119;28;20327;-83
2023/04/20 07:02:43;;;;;;;3.17;2.13;;;;;;;;;;5066865;28;20212;-83
2023/04/20 07:05:13;;;;;;;4.70;2.10;;;;;;;;;;5067905;28;20268;-83
2023/04/20 07:07:42;;;;;;;3.47;2.40;;;;;;;;;;5068559;28;20359;-83
2023/04/20 07:10:11;;;;;;;4.63;2.13;;;;;;;;;;5067678;28;20204;-83
2023/04/20 07:12:40;;;;;;;2.57;2.10;;;;;;;;;;5068306;28;20212;-82
2023/04/20 07:15:12;;;;;;;3.47;2.50;;;;;;;;;;5061469;28;20249;-83
2023/04/20 07:17:43;;;;;;;3.63;2.43;;;;;;;;;;5050728;28;20227;-83
2023/04/20 07:20:12;;;;;;;5.10;3.07;;;;;;;;;;5049879;28;20255;-83
2023/04/20 07:22:42;;;;;;;4.97;3.30;;;;;;;;;;5063909;28;20217;-83
2023/04/20 07:25:11;;;;;;;6.20;2.80;;;;;;;;;;5067646;28;20208;-83
2023/04/20 07:27:40;;;;;;;3.97;3.13;;;;;;;;;;5067759;28;20226;-83
2023/04/20 07:30:09;;;;;;;3.23;2.47;;;;;;;;;;5068318;28;20204;-83
2023/04/20 07:32:39;;;;;;;2.97;2.53;;;;;;;;;;5067265;28;20207;-83
2023/04/20 07:35:08;;;;;;;3.00;2.57;;;;;;;;;;5067680;28;20242;-83
2023/04/20 07:37:36;;;;;;;4.10;2.07;;;;;;;;;;5067343;28;20225;-83
2023/04/20 07:40:07;;;;;;;3.87;2.70;;;;;;;;;;5070882;28;20283;-83
2023/04/20 07:42:36;;;;;;;4.13;2.33;;;;;;;;;;5070379;28;20208;-83
2023/04/20 07:45:05;;;;;;;2.77;2.23;;;;;;;;;;5071340;28;20212;-83
2023/04/20 07:47:34;;;;;;;2.50;2.30;;;;;;;;;;5070797;28;20234;-83
2023/04/20 07:50:02;;;;;;;3.60;2.17;;;;;;;;;;5070697;28;20206;-83
2023/04/20 07:52:31;;;;;;;2.40;2.20;;;;;;;;;;5070436;28;20343;-83
2023/04/20 07:54:59;;;;;;;2.73;2.20;;;;;;;;;;5070397;28;20254;-83
2023/04/20 07:57:30;;;;;;;2.67;2.47;;;;;;;;;;5069838;28;20205;-83
2023/04/20 07:59:58;;;;;;;3.33;3.10;;;;;;;;;;5070698;28;20315;-83
2023/04/20 08:02:26;;;;;;;6.77;2.40;;;;;;;;;;5070489;28;20265;-83
2023/04/20 08:04:56;;;;;;;2.63;2.13;;;;;;;;;;5052367;28;20207;-83
2023/04/20 08:07:24;;;;;;;2.63;2.33;;;;;;;;;;5070390;28;20212;-83
2023/04/20 08:09:53;;;;;;;3.03;2.63;;;;;;;;;;5070818;28;20198;-83
2023/04/20 08:12:21;;;;;;;4.67;2.83;;;;;;;;;;5070087;28;20207;-83
2023/04/20 08:14:51;;;;;;;7.13;2.30;;;;;;;;;;5070382;28;20204;-83
2023/04/20 08:17:20;;;;;;;2.60;2.40;;;;;;;;;;5070333;28;20230;-83
2023/04/20 08:19:48;;;;;;;6.53;2.87;;;;;;;;;;5069770;28;20310;-83
2023/04/20 08:22:17;;;;;;;4.07;2.67;;;;;;;;;;5070023;28;20203;-82
2023/04/20 08:24:46;;;;;;;5.17;2.67;;;;;;;;;;5070071;28;20302;-83
2023/04/20 08:27:14;;;;;;;4.20;2.73;;;;;;;;;;5069581;28;20249;-82
2023/04/20 08:29:43;;;;;;;4.07;2.87;;;;;;;;;;5070194;28;20324;-83
2023/04/20 08:32:12;;;;;;;5.53;3.10;;;;;;;;;;5069946;28;20219;-83
2023/04/20 08:34:43;;;;;;;4.73;3.57;;;;;;;;;;5069889;28;20207;-83
2023/04/20 08:37:12;;;;;;;4.87;3.00;;;;;;;;;;5069526;28;20211;-83
2023/04/20 08:39:40;;;;;;;4.50;3.70;;;;;;;;;;5069747;28;20341;-83
2023/04/20 08:42:09;;;;;;;3.33;2.43;;;;;;;;;;5069431;28;20248;-83
2023/04/20 08:44:37;;;;;;;3.63;2.50;;;;;;;;;;5069600;28;20236;-83
2023/04/20 08:47:06;;;;;;;3.07;2.73;;;;;;;;;;5069877;28;20203;-83
2023/04/20 08:49:38;;;;;;;3.33;2.87;;;;;;;;;;5069855;28;20213;-83
2023/04/20 08:52:09;;;;;;;4.10;3.70;;;;;;;;;;5069189;28;20216;-82
2023/04/20 08:54:39;;;;;;;4.17;3.73;;;;;;;;;;5068967;28;20200;-83
2023/04/20 08:57:23;;;;;;;3.57;3.27;;;;;;;;;;5069497;28;20206;-83
2023/04/20 08:59:52;;;;;;;3.47;3.17;;;;;;;;;;5069381;28;20221;-83
2023/04/20 09:02:20;;;;;;;5.10;3.73;;;;;;;;;;5069647;28;20213;-83
2023/04/20 09:05:01;;;;;;;8.53;3.27;;;;;;;;;;5069175;28;20268;-83
2023/04/20 09:07:29;;;;;;;5.33;3.23;;;;;;;;;;5069270;28;20209;-83
2023/04/20 09:09:59;;;;;;;3.73;2.97;;;;;;;;;;5069017;28;20260;-83
2023/04/20 09:12:28;;;;;;;2.90;2.70;;;;;;;;;;5068936;28;20225;-83
2023/04/20 09:14:56;;;;;;;3.97;2.63;;;;;;;;;;5068790;28;20230;-83
2023/04/20 09:17:32;;;;;;;2.23;2.13;;;;;;;;;;5069199;28;20207;-83
2023/04/20 09:20:03;;;;;;;2.87;2.67;;;;;;;;;;5068863;28;20213;-83
2023/04/20 09:22:33;;;;;;;3.67;3.33;;;;;;;;;;5068405;28;20229;-83
2023/04/20 09:25:01;;;;;;;5.57;3.13;;;;;;;;;;5069092;28;20209;-83
2023/04/20 09:27:30;;;;;;;4.83;2.73;;;;;;;;;;5068567;28;20223;-83
2023/04/20 09:30:00;;;;;;;4.23;3.10;;;;;;;;;;5061875;28;20190;-83
2023/04/20 09:32:32;;;;;;;3.73;3.30;;;;;;;;;;5061068;28;20203;-83
2023/04/20 09:35:03;;;;;;;3.97;3.17;;;;;;;;;;5059245;28;20199;-84
2023/04/20 09:37:32;;;;;;;2.57;2.37;;;;;;;;;;5063213;28;20204;-83
2023/04/20 09:40:04;;;;;;;3.87;2.77;;;;;;;;;;5067467;28;20231;-83
2023/04/20 09:42:33;;;;;;;2.20;2.10;;;;;;;;;;5067297;28;20199;-83
2023/04/20 09:45:01;;;;;;;6.07;3.13;;;;;;;;;;5063399;28;20230;-83
2023/04/20 09:47:30;;;;;;;3.60;2.93;;;;;;;;;;5065168;28;20199;-83
2023/04/20 09:49:59;;;;;;;4.07;3.17;;;;;;;;;;5069178;28;20214;-83
2023/04/20 09:52:50;;;;;;;2.87;2.67;;;;;;;;;;5068041;28;20248;-83
2023/04/20 09:55:18;;;;;;;3.70;3.40;;;;;;;;;;5067974;28;20298;-83
2023/04/20 09:57:47;;;;;;;3.37;3.07;;;;;;;;;;5068475;28;20208;-82
2023/04/20 10:00:16;;;;;;;3.27;2.97;;;;;;;;;;5067266;28;20261;-83
2023/04/20 10:02:47;;;;;;;6.87;2.97;;;;;;;;;;5048368;28;20244;-83
2023/04/20 10:05:16;;;;;;;3.57;3.10;;;;;;;;;;5054256;28;20207;-83
2023/04/20 10:07:47;;;;;;;5.90;3.20;;;;;;;;;;5068369;28;20248;-83
2023/04/20 10:10:17;;;;;;;5.23;3.33;;;;;;;;;;5067942;28;20252;-83
2023/04/20 10:12:50;;;;;;;3.20;2.73;;;;;;;;;;5068251;28;20263;-83
2023/04/20 10:15:20;;;;;;;2.67;2.33;;;;;;;;;;5068003;28;20202;-83
2023/04/20 10:17:49;;;;;;;4.10;2.90;;;;;;;;;;5067238;28;20265;-83
2023/04/20 10:20:19;;;;;;;3.97;3.23;;;;;;;;;;5068051;28;20203;-83
2023/04/20 10:22:51;;;;;;;4.20;3.77;;;;;;;;;;5068007;28;20208;-83
2023/04/20 10:25:26;;;;;;;10.57;4.07;;;;;;;;;;5066935;28;20283;-83
2023/04/20 10:27:56;;;;;;;4.57;3.10;;;;;;;;;;5065512;28;20248;-85
2023/04/20 10:30:25;;;;;;;4.70;3.07;;;;;;;;;;5071172;28;20292;-85
2023/04/20 10:33:05;;;;;;;4.40;3.03;;;;;;;;;;5072330;28;20205;-86
2023/04/20 10:35:47;;;;;;;4.57;3.53;;;;;;;;;;5071722;28;20207;-85
2023/04/20 10:38:16;;;;;;;3.03;2.43;;;;;;;;;;5071521;28;20240;-86
2023/04/20 10:40:51;;;;;;;4.37;3.80;;;;;;;;;;5071520;28;20219;-85
2023/04/20 10:43:21;;;;;;;3.20;2.97;;;;;;;;;;5071356;28;20299;-86
2023/04/20 10:45:49;;;;;;;2.80;2.60;;;;;;;;;;5071066;28;20227;-86
2023/04/20 10:48:18;;;;;;;3.83;3.13;;;;;;;;;;5070916;28;20198;-85
2023/04/20 10:50:46;;;;;;;3.97;3.67;;;;;;;;;;5071332;28;20196;-85
2023/04/20 10:53:19;;;;;;;4.00;3.50;;;;;;;;;;5071287;28;20330;-86
2023/04/20 10:55:50;;;;;;;4.33;3.93;;;;;;;;;;5070976;28;20253;-85
2023/04/20 10:58:24;;;;;;;3.23;2.93;;;;;;;;;;5071129;28;20204;-86
2023/04/20 11:00:59;;;;;;;4.37;3.37;;;;;;;;;;5070929;28;20234;-86
2023/04/20 11:03:28;;;;;;;3.23;3.00;;;;;;;;;;5070980;28;20220;-86
2023/04/20 11:06:00;;;;;;;4.67;3.07;;;;;;;;;;5070965;28;20229;-86
2023/04/20 11:08:38;;;;;;;3.87;3.57;;;;;;;;;;5071092;28;20203;-86
2023/04/20 11:11:18;;;;;;;4.43;3.50;;;;;;;;;;5070594;28;20191;-86
2023/04/20 11:13:49;;;;;;;4.57;4.17;;;;;;;;;;5074853;28;20196;-86
2023/04/20 11:16:19;;;;;;;3.63;3.30;;;;;;;;;;5075188;28;20319;-86
2023/04/20 11:18:52;;;;;;;4.80;4.30;;;;;;;;;;5074708;28;20196;-86
2023/04/20 11:21:20;;;;;;;3.77;3.47;;;;;;;;;;5075045;28;20215;-85
2023/04/20 11:23:49;;;;;;;4.17;3.83;;;;;;;;;;5074981;28;20196;-86
2023/04/20 11:26:18;;;;;;;4.33;3.93;;;;;;;;;;5074620;28;20261;-86
2023/04/20 11:28:54;;;;;;;5.27;4.70;;;;;;;;;;5074602;28;20196;-86
2023/04/20 11:31:25;;;;;;;4.33;3.93;;;;;;;;;;5074127;28;20199;-86
2023/04/20 11:33:54;;;;;;;4.03;3.63;;;;;;;;;;5074743;28;20207;-86
2023/04/20 11:36:23;;;;;;;4.90;4.50;;;;;;;;;;5074452;28;20196;-86
2023/04/20 11:38:51;;;;;;;4.00;3.70;;;;;;;;;;5074638;28;20237;-86
2023/04/20 11:41:20;;;;;;;5.07;4.50;;;;;;;;;;5074239;28;20217;-86
2023/04/20 11:43:51;;;;;;;4.47;3.73;;;;;;;;;;5074193;28;20201;-87
2023/04/20 11:46:21;;;;;;;4.60;4.27;;;;;;;;;;5075406;28;20205;-86
2023/04/20 11:48:50;;;;;;;5.10;4.63;;;;;;;;;;5074658;28;20188;-86
2023/04/20 11:51:18;;;;;;;10.93;4.20;;;;;;;;;;5074260;28;20200;-87
2023/04/20 11:53:47;;;;;;;4.73;3.87;;;;;;;;;;5074041;28;20259;-86
2023/04/20 11:56:15;;;;;;;8.50;5.77;;;;;;;;;;5074246;28;20224;-86
2023/04/20 11:58:44;;;;;;;7.33;4.50;;;;;;;;;;5074171;28;20205;-86
2023/04/20 12:01:12;;;;;;;4.23;3.33;;;;;;;;;;5074465;28;20202;-87
2023/04/20 12:03:42;;;;;;;19.73;17.17;;;;;;;;;;5074432;28;20213;-86
2023/04/20 12:06:16;;;;;;;8.77;7.00;;;;;;;;;;5074060;28;20220;-87
2023/04/20 12:08:46;;;;;;;9.57;8.67;;;;;;;;;;5074208;28;20229;-87
2023/04/20 12:11:16;;;;;;;14.67;13.27;;;;;;;;;;5074496;28;20209;-86
2023/04/20 12:13:44;;;;;;;14.13;11.07;;;;;;;;;;5074363;28;20279;-86
2023/04/20 12:16:13;;;;;;;6.00;5.47;;;;;;;;;;5074321;28;20198;-86
2023/04/20 12:18:43;;;;;;;7.07;6.37;;;;;;;;;;5073881;28;20215;-86
2023/04/20 12:21:11;;;;;;;6.97;6.37;;;;;;;;;;5073997;28;20197;-86
2023/04/20 12:23:40;;;;;;;6.23;4.20;;;;;;;;;;5073888;28;20275;-86
2023/04/20 12:26:08;;;;;;;3.63;3.33;;;;;;;;;;5075123;28;20255;-85
2023/04/20 12:28:39;;;;;;;4.27;3.83;;;;;;;;;;5074558;28;20221;-85
2023/04/20 12:31:07;;;;;;;5.30;4.73;;;;;;;;;;5074061;28;20205;-85
2023/04/20 12:33:36;;;;;;;7.20;6.50;;;;;;;;;;5074256;28;20189;-85
2023/04/20 12:36:06;;;;;;;4.97;4.57;;;;;;;;;;5074273;28;20186;-85
2023/04/20 12:38:35;;;;;;;7.17;5.23;;;;;;;;;;5073678;28;20251;-85
2023/04/20 12:41:04;;;;;;;5.10;4.63;;;;;;;;;;5074359;28;20237;-85
2023/04/20 12:43:32;;;;;;;5.75;5.10;;;;;;;;;;5073785;28;20489;-85
2023/04/20 12:46:01;;;;;;;4.80;4.30;;;;;;;;;;5073658;28;20205;-85
2023/04/20 12:48:31;;;;;;;5.37;4.53;;;;;;;;;;5074073;28;20233;-87
2023/04/20 12:51:00;;;;;;;6.00;4.67;;;;;;;;;;5075352;28;20193;-86
2023/04/20 12:53:32;;;;;;;5.23;4.73;;;;;;;;;;5073229;28;20237;-85
2023/04/20 12:56:01;;;;;;;5.13;3.53;;;;;;;;;;5073278;28;20212;-86
2023/04/20 12:58:29;;;;;;;5.83;4.87;;;;;;;;;;5073415;28;20232;-86
2023/04/20 13:00:58;;;;;;;5.83;5.17;;;;;;;;;;5073058;28;20198;-86
2023/04/20 13:03:26;;;;;;;7.43;4.20;;;;;;;;;;5072700;28;20213;-86
2023/04/20 13:05:55;;;;;;;6.60;5.90;;;;;;;;;;5073263;28;20208;-86
2023/04/20 13:08:26;;;;;;;7.57;4.67;;;;;;;;;;5072893;28;20308;-86
2023/04/20 13:10:56;;;;;;;6.07;4.40;;;;;;;;;;5072694;28;20209;-86
2023/04/20 13:13:27;;;;;;;5.70;5.10;;;;;;;;;;5073137;28;20198;-86
2023/04/20 13:15:55;;;;;;;6.17;4.60;;;;;;;;;;5072541;28;20221;-86
2023/04/20 13:18:24;;;;;;;7.73;5.57;;;;;;;;;;5072858;28;20202;-86
2023/04/20 13:20:52;;;;;;;7.40;6.60;;;;;;;;;;5072663;28;20224;-86
2023/04/20 13:23:21;;;;;;;4.30;3.70;;;;;;;;;;5072609;28;20218;-86
2023/04/20 13:25:50;;;;;;;6.27;5.63;;;;;;;;;;5072329;28;20193;-85
2023/04/20 13:28:20;;;;;;;8.80;6.60;;;;;;;;;;5072669;28;20253;-86
2023/04/20 13:30:48;;;;;;;5.87;5.27;;;;;;;;;;5072467;28;20205;-86
2023/04/20 13:33:17;;;;;;;7.03;6.30;;;;;;;;;;5072525;28;20197;-86
2023/04/20 13:35:47;;;;;;;6.93;6.23;;;;;;;;;;5071558;28;20201;-86
2023/04/20 13:38:15;;;;;;;5.10;4.70;;;;;;;;;;5072302;28;20201;-86
2023/04/20 13:40:47;;;;;;;8.13;7.43;;;;;;;;;;5071854;28;20186;-86
2023/04/20 13:43:16;;;;;;;7.50;6.83;;;;;;;;;;5071931;28;20222;-86
2023/04/20 13:45:49;;;;;;;6.87;5.50;;;;;;;;;;5072227;28;20194;-86
2023/04/20 13:48:24;;;;;;;8.73;5.87;;;;;;;;;;5072188;28;20230;-85
2023/04/20 13:51:03;;;;;;;5.07;4.57;;;;;;;;;;5072343;28;20321;-85
2023/04/20 13:53:35;;;;;;;6.13;5.53;;;;;;;;;;5071527;28;20229;-85
2023/04/20 13:56:10;;;;;;;5.03;4.63;;;;;;;;;;5071441;28;20190;-85
2023/04/20 13:58:43;;;;;;;5.30;4.80;;;;;;;;;;5072554;28;20197;-85
2023/04/20 14:01:16;;;;;;;8.87;6.77;;;;;;;;;;5060452;28;20225;-85
2023/04/20 14:04:04;;;;;;;7.03;6.00;;;;;;;;;;5055290;28;20205;-86
2023/04/20 14:06:36;;;;;;;6.90;6.17;;;;;;;;;;5071321;28;20189;-86
2023/04/20 14:09:04;;;;;;;6.80;6.20;;;;;;;;;;5060877;28;20206;-85
2023/04/20 14:11:36;;;;;;;7.20;6.50;;;;;;;;;;5051683;28;20206;-86
2023/04/20 14:14:05;;;;;;;8.47;7.60;;;;;;;;;;5051907;28;20194;-86
2023/04/20 14:16:42;;;;;;;4.80;4.40;;;;;;;;;;5052144;28;20205;-86
2023/04/20 14:19:11;;;;;;;5.93;5.33;;;;;;;;;;5051264;28;20202;-86
2023/04/20 14:21:45;;;;;;;6.37;5.83;;;;;;;;;;5051770;28;20204;-86
2023/04/20 14:24:18;;;;;;;5.80;5.30;;;;;;;;;;5051999;28;20214;-87
2023/04/20 14:26:47;;;;;;;7.30;5.37;;;;;;;;;;5051595;28;20269;-86
2023/04/20 14:29:18;;;;;;;4.77;4.20;;;;;;;;;;5052122;28;20194;-86
2023/04/20 14:31:48;;;;;;;6.30;5.70;;;;;;;;;;5051555;28;20285;-87
2023/04/20 14:34:17;;;;;;;6.50;5.93;;;;;;;;;;5051891;28;20198;-86
2023/04/20 14:36:46;;;;;;;5.77;5.27;;;;;;;;;;5051369;28;20202;-86
2023/04/20 14:39:15;;;;;;;8.03;7.27;;;;;;;;;;5051543;28;20199;-87
2023/04/20 14:41:43;;;;;;;6.80;6.13;;;;;;;;;;5052406;28;20198;-86
2023/04/20 14:44:18;;;;;;;8.63;7.17;;;;;;;;;;5051423;28;20238;-86
2023/04/20 14:46:48;;;;;;;7.60;6.83;;;;;;;;;;5052666;28;20194;-86
2023/04/20 14:49:17;;;;;;;9.07;7.10;;;;;;;;;;5057729;28;20256;-85
2023/04/20 14:51:45;;;;;;;6.63;5.83;;;;;;;;;;5058258;28;20205;-85
2023/04/20 14:54:20;;;;;;;6.43;5.83;;;;;;;;;;5057576;28;20288;-85
2023/04/20 14:56:49;;;;;;;7.80;7.07;;;;;;;;;;5058085;28;20217;-85
2023/04/20 14:59:17;;;;;;;5.37;4.97;;;;;;;;;;5057675;28;20252;-85